CSUN New Campus Station -PST Time - Most Recent Data on bottom of page




           Date/Time      Avg      Avg      Max     Wind      Avg      Max      Min      Avg      Avg    Total      Avg     Batt
                         Wind     Wind     Wind      Dir     Temp     Temp     Temp       RH      Bar     Rain    Solar     Volt
                      Spd MPH      Dir  Spd MPH   at Max    Deg_F    Deg_F    Deg_F        % Press_mb   Inches     W/m2      Min
--------------------------------------------------------------------------------------------------------------------------------
    07/26/2015 00:00      2.3       76      5.1       86     72.0     72.5     71.7       60     1012     0.00        0     13.3
    07/26/2015 00:15      1.5       56      4.3       24     71.6     71.9     71.3       61     1012     0.00        0     13.3
    07/26/2015 00:30      1.5       68      4.1       30     71.3     71.6     70.9       62     1012     0.00        0     13.3
    07/26/2015 00:45      2.6       61      4.9       84     70.9     71.2     70.6       63     1012     0.00        0     13.3
    07/26/2015 01:00      2.3       51      4.5       43     70.5     70.8     70.3       63     1012     0.00        0     13.3
    07/26/2015 01:15      1.5       49      4.5       33     70.3     70.5     70.0       64     1012     0.00        0     13.3
    07/26/2015 01:30      1.3       47      2.7       47     70.0     70.3     69.8       64     1012     0.00        0     13.3
    07/26/2015 01:45      1.2       80      2.7       43     69.9     70.2     69.7       64     1012     0.00        0     13.3
    07/26/2015 02:00      0.7       79      2.3       88     69.6     70.0     69.2       66     1012     0.00        0     13.3
    07/26/2015 02:15      0.5      102      1.9      137     69.0     69.5     68.3       68     1011     0.00        0     13.3
    07/26/2015 02:30      0.0        0      0.0      155     67.9     68.4     67.5       71     1011     0.00        0     13.3
    07/26/2015 02:45      0.0        0      0.0      178     67.3     67.6     67.0       73     1011     0.00        0     13.3
    07/26/2015 03:00      0.0        0      0.0      210     67.2     67.5     67.0       73     1011     0.00        0     13.3
    07/26/2015 03:15      0.1      317      1.5      335     67.1     67.4     66.8       71     1011     0.00        0     13.3
    07/26/2015 03:30      0.0        0      0.8      339     67.0     67.4     66.5       71     1011     0.00        0     13.3
    07/26/2015 03:45      0.0        0      1.4        9     66.5     66.8     66.1       73     1011     0.00        0     13.3
    07/26/2015 04:00      0.0       25      0.7       29     66.0     66.3     65.8       74     1011     0.00        0     13.3
    07/26/2015 04:15      0.0       45      1.1       57     65.7     66.0     65.4       75     1011     0.00        0     13.3
    07/26/2015 04:30      0.0        0      0.0      326     65.5     65.8     65.3       75     1011     0.00        0     13.3
    07/26/2015 04:45      0.8       48      2.5       50     65.7     66.4     65.3       73     1012     0.00        0     13.3
    07/26/2015 05:00      2.0       37      4.0       11     66.5     66.7     66.2       73     1012     0.00        2     13.3
    07/26/2015 05:15      2.3       49      4.4       33     66.6     66.8     66.4       74     1012     0.00        6     13.3
    07/26/2015 05:30      2.0       45      4.0       43     66.7     66.9     66.5       75     1012     0.00       13     13.3
    07/26/2015 05:45      1.7       44      3.7       26     66.8     67.0     66.6       75     1012     0.00       21     13.3
    07/26/2015 06:00      1.3       65      2.7       62     67.3     68.1     66.8       75     1012     0.00       83     13.3
    07/26/2015 06:15      2.3       84      5.4       82     68.6     69.3     68.1       71     1013     0.00      142     13.3
    07/26/2015 06:30      3.3       84      5.8       65     69.2     69.5     69.0       69     1013     0.00      187     13.3
    07/26/2015 06:45      2.4       97      6.5      102     70.0     70.7     69.1       68     1013     0.00      234     13.3
    07/26/2015 07:00      3.1       99      6.1      115     70.2     70.5     70.0       69     1013     0.00      280     13.3
    07/26/2015 07:15      3.9       94      7.5       89     70.2     70.5     69.8       68     1013     0.00      332     13.2
    07/26/2015 07:30      3.8       87      9.0       93     70.4     71.0     69.8       66     1013     0.00      373     13.2
    07/26/2015 07:45      3.4      100      7.4       78     71.8     72.4     70.9       64     1013     0.00      425     13.2
    07/26/2015 08:00      2.2      117      6.9      138     72.4     73.1     71.6       61     1013     0.00      477     13.2
    07/26/2015 08:15      2.6      140      5.9      133     73.3     74.3     72.6       58     1013     0.00      525     13.2
    07/26/2015 08:30      2.9      147      8.6      173     73.6     74.0     73.1       60     1013     0.00      568     13.2
    07/26/2015 08:45      4.1      159      8.8      157     74.1     75.1     73.3       55     1013     0.00      615     13.2
    07/26/2015 09:00      3.6      132      9.4      169     75.0     76.1     73.7       51     1013     0.00      657     13.1
    07/26/2015 09:15      2.5      103      6.4       93     76.3     77.4     75.6       46     1013     0.00      696     13.1
    07/26/2015 09:30      2.8      119      7.4      144     77.5     77.9     76.9       48     1013     0.00      731     13.1
    07/26/2015 09:45      2.3       96      5.5      137     78.1     79.0     77.6       41     1013     0.00      769     13.1
    07/26/2015 10:00      2.9      126      6.8       67     79.4     80.3     78.6       43     1013     0.00      797     13.1
    07/26/2015 10:15      3.2      138      7.6      164     80.9     81.7     80.2       35     1013     0.00      828     13.1
    07/26/2015 10:30      3.6      171      8.2      162     80.9     82.1     80.4       36     1013     0.00      845     13.1
    07/26/2015 10:45      4.3      137     12.1      145     82.1     82.7     81.8       36     1013     0.00      776     13.1
    07/26/2015 11:00      2.9      120      7.6      131     83.8     84.5     82.5       33     1013     0.00      885     13.0
    07/26/2015 11:15      3.9      134      9.2      164     84.4     84.9     83.9       33     1013     0.00      896     13.0
    07/26/2015 11:30      4.0      149      9.4      131     84.6     85.5     83.8       33     1013     0.00      887     13.0
    07/26/2015 11:45      3.6      101      9.5      100     84.3     84.9     83.7       34     1013     0.00      909     13.0
    07/26/2015 12:00      3.9      113      8.6       95     84.7     85.3     84.2       32     1013     0.00      917     13.0
    07/26/2015 12:15      5.0      130     11.1       86     85.5     86.2     84.8       30     1012     0.00      918     13.0
    07/26/2015 12:30      5.8      145     11.1      144     85.2     86.1     84.6       31     1012     0.00      916     13.0
    07/26/2015 12:45      5.9      135     11.5      170     85.6     86.2     84.9       29     1012     0.00      911     13.0
    07/26/2015 13:00      5.1      121     12.6      169     86.0     86.7     85.3       32     1012     0.00      901     13.0
    07/26/2015 13:15      5.5      144     11.6      142     86.2     86.8     85.3       26     1012     0.00      890     13.0
    07/26/2015 13:30      5.6      130     13.2      132     86.1     86.7     85.4       28     1012     0.00      874     13.0
    07/26/2015 13:45      4.8      120     11.7      132     86.4     86.9     85.9       25     1012     0.00      854     13.0
    07/26/2015 14:00      6.0      117     12.0      147     86.5     87.0     85.9       26     1011     0.00      829     13.0
    07/26/2015 14:15      6.0      117     13.7       47     86.7     87.8     85.9       27     1011     0.00      797     13.0
    07/26/2015 14:30      4.9      123     11.0      118     86.7     87.4     86.2       24     1011     0.00      769     13.0
    07/26/2015 14:45      4.7      119     10.2      107     86.7     87.0     86.4       27     1011     0.00      737     13.0
    07/26/2015 15:00      6.0      110     12.6       82     86.1     86.6     85.6       27     1011     0.00      672     13.0
    07/26/2015 15:15      6.2      107     13.6       96     86.0     86.8     84.9       27     1011     0.00      659     13.0
    07/26/2015 15:30      5.4      125     13.6      152     85.9     86.3     85.4       27     1011     0.00      617     13.0
    07/26/2015 15:45      6.3      112     13.6      100     85.0     85.9     84.2       28     1011     0.00      576     13.0
    07/26/2015 16:00      4.9      116     11.5       97     84.9     85.7     84.2       29     1011     0.00      530     13.0
    07/26/2015 16:15      6.1      108     12.4       92     83.8     84.7     82.7       31     1011     0.00      485     13.0
    07/26/2015 16:30      5.2      121     10.4      120     83.1     83.8     82.3       33     1011     0.00      437     13.0
    07/26/2015 16:45      4.4      102      8.9       99     83.0     83.5     82.3       30     1011     0.00      390     13.0
    07/26/2015 17:00      5.2      112     10.3      130     82.8     83.4     82.1       31     1011     0.00      339     13.0
    07/26/2015 17:15      3.9      112     10.4      141     82.5     82.7     82.2       32     1011     0.00      289     13.0
    07/26/2015 17:30      4.2      103     10.6       79     82.4     82.8     81.7       31     1011     0.00      241     13.1
    07/26/2015 17:45      4.5      102      8.9       79     81.2     81.9     80.6       33     1011     0.00      190     13.1
    07/26/2015 18:00      4.3       89      8.9       79     80.1     80.9     79.4       36     1011     0.00       60     13.1
    07/26/2015 18:15      3.4       97      7.5       92     79.4     79.7     79.1       35     1011     0.00       26     13.1
    07/26/2015 18:30      3.5      102      6.8       96     79.0     79.3     78.5       35     1011     0.00       24     13.1
    07/26/2015 18:45      2.4      105      5.7      141     78.2     78.7     77.6       39     1011     0.00       14     13.2
    07/26/2015 19:00      2.8       83      6.5      100     77.1     77.7     76.6       39     1011     0.00        7     13.2
    07/26/2015 19:15      2.8      101      7.3       91     76.0     76.8     75.4       41     1011     0.00        2     13.2
    07/26/2015 19:30      3.2      107      7.5       88     74.7     75.6     74.0       44     1011     0.00        0     13.2
    07/26/2015 19:45      2.1      104      5.0      134     73.7     74.2     73.2       48     1011     0.00        0     13.2
    07/26/2015 20:00      1.8       91      5.0      107     72.8     73.3     72.3       51     1011     0.00        0     13.2
    07/26/2015 20:15      3.4       80      6.6       82     72.0     72.6     71.5       51     1011     0.00        0     13.2
    07/26/2015 20:30      3.2       85      6.4       67     71.3     71.7     70.9       54     1012     0.00        0     13.2
    07/26/2015 20:45      3.2       72      6.4       71     70.7     71.2     70.3       59     1012     0.00        0     13.2
    07/26/2015 21:00      2.9       77      6.5       86     70.2     70.6     70.0       60     1012     0.00        0     13.3
    07/26/2015 21:15      3.0       70      7.5       75     69.9     70.3     69.7       62     1012     0.00        0     13.3
    07/26/2015 21:30      2.1       60      5.6       35     69.7     69.8     69.4       62     1012     0.00        0     13.3
    07/26/2015 21:45      2.9       63      5.3       32     69.5     69.7     69.2       63     1012     0.00        0     13.3
    07/26/2015 22:00      2.4       62      5.7       34     69.2     69.5     68.9       64     1012     0.00        0     13.3
    07/26/2015 22:15      2.9       83      6.3       93     69.0     69.2     68.8       62     1012     0.00        0     13.3
    07/26/2015 22:30      2.9       86      6.1       59     68.6     69.1     68.3       64     1012     0.00        0     13.3
    07/26/2015 22:45      3.0       78      5.0       83     68.2     68.5     68.0       67     1012     0.00        0     13.3
    07/26/2015 23:00      3.1       77      5.4       75     67.8     68.2     67.3       70     1012     0.00        0     13.3
    07/26/2015 23:15      3.0       77      5.0       70     67.2     67.5     66.9       72     1012     0.00        0     13.3
    07/26/2015 23:30      2.1       81      4.6      107     66.8     67.1     66.5       73     1012     0.00        0     13.3
    07/26/2015 23:45      2.7       87      6.1       69     66.5     66.8     66.1       74     1012     0.00        0     13.3
    07/27/2015 00:00      2.4       72      5.8       96     66.0     66.4     65.8       75     1012     0.00        0     13.3
    07/27/2015 00:15      2.2       71      5.3       53     65.9     66.1     65.6       76     1012     0.00        0     13.3
    07/27/2015 00:30      2.1       77      4.5       74     65.7     65.9     65.5       76     1012     0.00        0     13.3
    07/27/2015 00:45      2.6       73      5.8       71     65.6     65.9     65.4       75     1012     0.00        0     13.3
    07/27/2015 01:00      2.4       60      5.6       28     65.4     65.7     65.1       76     1012     0.00        0     13.3
    07/27/2015 01:15      3.0       67      5.3       81     65.2     65.4     64.8       76     1012     0.00        0     13.3
    07/27/2015 01:30      2.2       73      5.1       62     64.9     65.2     64.5       76     1012     0.00        0     13.3
    07/27/2015 01:45      2.3       87      3.9      101     64.6     64.8     64.3       77     1012     0.00        0     13.3
    07/27/2015 02:00      1.8       73      4.5       83     64.2     64.5     63.9       78     1011     0.00        0     13.3
    07/27/2015 02:15      2.3       71      5.2       61     63.9     64.1     63.5       80     1012     0.00        0     13.3
    07/27/2015 02:30      1.9       77      3.9       68     63.7     63.9     63.5       81     1012     0.00        0     13.4
    07/27/2015 02:45      0.8       41      2.3       60     63.5     63.7     63.2       81     1012     0.00        0     13.3
    07/27/2015 03:00      0.2        4      1.4        0     63.4     63.6     63.2       81     1012     0.00        0     13.4
    07/27/2015 03:15      0.2      216      1.0      220     63.5     63.7     63.2       82     1012     0.00        0     13.4
    07/27/2015 03:30      0.6      147      2.3      163     63.9     64.1     63.6       81     1012     0.00        0     13.3
    07/27/2015 03:45      1.1      148      2.4      155     64.1     64.3     63.8       81     1012     0.00        0     13.3
    07/27/2015 04:00      1.3      207      2.3      174     64.1     64.3     63.9       81     1012     0.00        0     13.3
    07/27/2015 04:15      0.1      230      0.9      205     64.2     64.5     63.9       81     1012     0.00        0     13.3
    07/27/2015 04:30      0.7      154      2.7      117     64.5     64.9     64.2       80     1012     0.00        0     13.3
    07/27/2015 04:45      0.8      171      3.6      175     64.7     64.9     64.5       80     1012     0.00        0     13.3
    07/27/2015 05:00      1.2      166      3.6      172     64.7     65.0     64.4       80     1012     0.00        0     13.3
    07/27/2015 05:15      0.5      153      2.1       55     64.8     65.1     64.5       79     1012     0.00        1     13.3
    07/27/2015 05:30      0.4       42      2.8       71     65.0     65.4     64.7       78     1012     0.00        5     13.3
    07/27/2015 05:45      0.4      116      2.2       84     65.4     65.7     65.0       77     1012     0.00        9     13.3
    07/27/2015 06:00      0.7       65      3.0       48     65.7     65.8     65.5       76     1013     0.00       16     13.3
    07/27/2015 06:15      1.0       92      3.4       97     65.9     66.3     65.6       74     1013     0.00       27     13.3
    07/27/2015 06:30      1.7       58      4.3       73     66.2     66.5     65.9       73     1013     0.00       43     13.3
    07/27/2015 06:45      0.6       89      3.0       98     66.2     66.5     65.8       72     1013     0.00       61     13.3
    07/27/2015 07:00      1.2      121      3.2      170     66.6     67.0     66.2       71     1013     0.00       79     13.3
    07/27/2015 07:15      1.9       96      5.1      114     67.1     67.5     66.8       70     1013     0.00      100     13.3
    07/27/2015 07:30      0.7      126      2.6      167     67.6     67.8     67.2       68     1013     0.00      162     13.3
    07/27/2015 07:45      1.7      127      4.4       99     68.0     68.4     67.5       66     1013     0.00      210     13.3
    07/27/2015 08:00      2.2      125      6.4      157     68.3     68.7     68.0       67     1013     0.00      216     13.3
    07/27/2015 08:15      1.2       63      4.9       84     69.3     70.0     68.4       63     1013     0.00      325     13.2
    07/27/2015 08:30      1.4      191      4.2      157     70.2     70.8     69.6       62     1013     0.00      453     13.2
    07/27/2015 08:45      2.4      141      5.5      148     71.1     71.5     70.7       60     1013     0.00      593     13.2
    07/27/2015 09:00      1.9      320      5.3      253     72.4     73.2     71.0       58     1013     0.00      641     13.2
    07/27/2015 09:15      2.6       57      6.9       78     72.9     73.5     72.4       55     1013     0.00      683     13.2
    07/27/2015 09:30      2.5      100      6.8      142     73.2     73.7     72.7       55     1013     0.00      720     13.1
    07/27/2015 09:45      2.0      200      5.7      162     73.8     74.6     73.2       53     1013     0.00      757     13.1
    07/27/2015 10:00      3.0      131      6.9       80     75.2     76.0     74.5       49     1013     0.00      792     13.1
    07/27/2015 10:15      1.8      198      5.1       22     76.2     77.1     75.2       46     1013     0.00      816     13.1
    07/27/2015 10:30      2.7      120      6.0       79     76.7     77.4     76.2       47     1013     0.00      841     13.1
    07/27/2015 10:45      2.8      180      7.8      148     77.5     78.3     76.1       45     1012     0.00      862     13.1
    07/27/2015 11:00      3.0      154      8.2      162     78.3     78.8     77.8       42     1012     0.00      880     13.1
    07/27/2015 11:15      2.9      119      8.4      168     79.2     79.9     78.5       44     1012     0.00      891     13.1
    07/27/2015 11:30      3.1      173      8.0      197     79.7     80.8     79.1       37     1012     0.00      900     13.1
    07/27/2015 11:45      2.3      179      7.9      198     81.5     82.4     80.7       34     1012     0.00      909     13.1
    07/27/2015 12:00      2.6      158      7.3      157     82.7     83.8     81.7       34     1011     0.00      914     13.0
    07/27/2015 12:15      3.0      157      6.2      175     83.0     83.7     82.3       34     1011     0.00      909     13.0
    07/27/2015 12:30      2.7      149      8.1       68     83.8     84.8     82.8       33     1011     0.00      907     13.0
    07/27/2015 12:45      4.5      163      9.6      194     84.3     85.3     83.4       34     1011     0.00      898     13.0
    07/27/2015 13:00      6.5      148     14.0      149     83.9     84.8     83.4       40     1011     0.00      889     13.0
    07/27/2015 13:15      6.6      137     12.3      150     83.2     84.6     82.0       40     1011     0.00      873     13.0
    07/27/2015 13:30      5.5      115     11.3      139     82.5     83.2     81.8       38     1011     0.00      853     13.0
    07/27/2015 13:45      5.2      135     10.3      125     82.8     83.6     81.9       38     1011     0.00      835     13.0
    07/27/2015 14:00      5.3      113     12.2       94     83.3     84.0     82.8       39     1011     0.00      812     13.0
    07/27/2015 14:15      5.8      125     11.4      150     83.5     84.0     82.9       38     1011     0.00      785     13.0
    07/27/2015 14:30      4.7      112     12.9       87     83.7     84.6     82.8       37     1011     0.00      755     13.0
    07/27/2015 14:45      6.2      110     11.6      104     83.0     84.0     82.1       39     1010     0.00      719     13.0
    07/27/2015 15:00      5.1      104     12.9       87     82.6     82.9     82.2       39     1010     0.00      661     13.0
    07/27/2015 15:15      5.9      128     12.9      166     82.6     83.2     82.0       39     1010     0.00      646     13.0
    07/27/2015 15:30      4.9      122     11.4       96     82.4     83.1     81.5       40     1010     0.00      572     13.0
    07/27/2015 15:45      4.7      117     11.1      149     82.2     82.7     81.8       39     1010     0.00      550     13.0
    07/27/2015 16:00      5.0       99     10.5       97     82.4     82.9     82.0       39     1010     0.00      520     13.0
    07/27/2015 16:15      4.5      118     10.6      120     82.9     83.5     81.9       36     1010     0.00      473     13.0
    07/27/2015 16:30      4.7      102     10.3       77     82.8     83.5     82.0       36     1010     0.00      425     13.0
    07/27/2015 16:45      4.5      111      9.4      108     82.6     83.1     82.2       37     1010     0.00      376     13.0
    07/27/2015 17:00      4.6      110     10.5       54     82.1     82.6     81.4       37     1010     0.00      327     13.0
    07/27/2015 17:15      4.6      116     11.6      112     81.5     82.0     81.1       37     1010     0.00      278     13.1
    07/27/2015 17:30      4.8      103      9.6      112     80.5     81.4     80.0       39     1010     0.00      229     13.1
    07/27/2015 17:45      4.9       93      8.6      123     79.8     80.5     79.2       40     1010     0.00      180     13.1
    07/27/2015 18:00      4.1       96      9.7       72     79.1     79.5     78.6       39     1010     0.00       81     13.1
    07/27/2015 18:15      3.6      104      7.6       86     78.5     79.0     78.1       40     1010     0.00       32     13.1
    07/27/2015 18:30      3.5      103      8.2       82     77.6     78.4     76.9       42     1010     0.00       27     13.1
    07/27/2015 18:45      3.6       87      7.4       86     76.6     77.2     76.2       43     1011     0.00       15     13.2
    07/27/2015 19:00      3.2       84      7.0       81     76.0     76.3     75.6       45     1011     0.00        7     13.2
    07/27/2015 19:15      4.0       88      7.4       55     75.3     75.8     74.9       47     1011     0.00        2     13.2
    07/27/2015 19:30      2.0       92      6.0       80     74.7     75.1     74.4       48     1011     0.00        0     13.2
    07/27/2015 19:45      2.9       78      6.3       96     74.2     74.6     73.7       49     1011     0.00        0     13.2
    07/27/2015 20:00      3.2       83      6.8       80     73.3     73.9     72.8       52     1011     0.00        0     13.2
    07/27/2015 20:15      3.3       81      5.7       71     72.7     73.1     72.3       53     1011     0.00        0     13.2
    07/27/2015 20:30      2.1       79      4.8       78     72.4     72.6     72.2       53     1011     0.00        0     13.2
    07/27/2015 20:45      2.3       82      5.3       93     72.1     72.4     71.8       54     1011     0.00        0     13.3
    07/27/2015 21:00      1.7       76      3.6       83     71.8     72.0     71.4       55     1012     0.00        0     13.3
    07/27/2015 21:15      2.2       80      4.6       57     71.4     71.7     71.2       55     1012     0.00        0     13.3
    07/27/2015 21:30      1.8       76      4.0       82     71.2     71.4     70.9       56     1012     0.00        0     13.3
    07/27/2015 21:45      1.4       75      2.9       72     71.0     71.2     70.8       57     1012     0.00        0     13.3
    07/27/2015 22:00      1.4       68      3.0       65     70.7     70.9     70.5       58     1012     0.00        0     13.3
    07/27/2015 22:15      1.3       80      2.6       92     70.5     70.9     70.3       59     1012     0.00        0     13.3
    07/27/2015 22:30      0.8       70      2.5       71     70.3     70.6     70.1       59     1012     0.00        0     13.3
    07/27/2015 22:45      1.2       77      3.1       95     70.2     70.4     69.8       61     1012     0.00        0     13.3
    07/27/2015 23:00      1.4       80      2.9       79     69.8     70.1     69.5       62     1012     0.00        0     13.3
    07/27/2015 23:15      0.6      102      1.8      147     69.5     69.8     68.9       63     1011     0.00        0     13.3
    07/27/2015 23:30      1.2      107      2.6      114     68.6     69.0     68.3       64     1011     0.00        0     13.3
    07/27/2015 23:45      0.8       83      2.8       75     68.7     68.9     68.4       66     1011     0.00        0     13.3
    07/28/2015 00:00      0.8       89      2.6      108     68.2     68.6     68.0       68     1011     0.00        0     13.3
    07/28/2015 00:15      1.2       81      2.7       76     68.0     68.3     67.8       69     1011     0.00        0     13.3
    07/28/2015 00:30      1.1       71      2.1       67     67.8     68.0     67.5       70     1011     0.00        0     13.3
    07/28/2015 00:45      1.3       85      2.8       89     67.6     67.8     67.3       71     1011     0.00        0     13.3
    07/28/2015 01:00      0.6       81      1.8      107     67.3     67.7     66.9       72     1011     0.00        0     13.3
    07/28/2015 01:15      0.4       37      1.6       55     66.8     67.2     66.3       73     1011     0.00        0     13.3
    07/28/2015 01:30      0.9       80      2.4       80     66.5     66.7     66.1       74     1011     0.00        0     13.3
    07/28/2015 01:45      0.5       95      2.5      111     66.5     66.8     66.1       75     1011     0.00        0     13.3
    07/28/2015 02:00      0.3       87      1.9      106     66.0     66.3     65.6       77     1011     0.00        0     13.3
    07/28/2015 02:15      0.6       68      2.0       80     65.6     65.9     65.2       78     1011     0.00        0     13.3
    07/28/2015 02:30      1.2       74      3.0       51     65.6     65.8     65.5       78     1011     0.00        0     13.3
    07/28/2015 02:45      0.8       62      2.4       62     65.5     65.8     65.3       79     1011     0.00        0     13.3
    07/28/2015 03:00      1.6       38      2.8       42     65.3     65.5     65.1       79     1011     0.00        0     13.4
    07/28/2015 03:15      1.1       62      3.0       53     65.2     65.4     65.0       79     1011     0.00        0     13.3
    07/28/2015 03:30      0.9       51      2.7       42     65.0     65.2     64.8       80     1011     0.00        0     13.4
    07/28/2015 03:45      0.7       54      2.3       46     64.8     65.0     64.6       81     1011     0.00        0     13.4
    07/28/2015 04:00      1.2       47      2.4       57     64.7     65.0     64.4       81     1011     0.00        0     13.4
    07/28/2015 04:15      1.2       76      2.1       62     64.5     64.8     64.3       82     1011     0.00        0     13.4
    07/28/2015 04:30      0.8       91      2.1       86     64.3     64.5     64.0       82     1011     0.00        0     13.4
    07/28/2015 04:45      0.5      135      1.7      151     63.8     64.2     63.3       83     1011     0.00        0     13.4
    07/28/2015 05:00      1.0      139      2.9      140     63.2     63.5     63.0       85     1011     0.00        1     13.4
    07/28/2015 05:15      1.2      142      3.2      141     63.0     63.3     62.8       85     1011     0.00        5     13.4
    07/28/2015 05:30      0.6      150      2.0      146     62.9     63.0     62.6       86     1012     0.00       15     13.4
    07/28/2015 05:45      1.4      150      2.7      146     63.0     63.3     62.7       87     1012     0.00       27     13.4
    07/28/2015 06:00      1.2      151      3.1      166     63.4     63.9     63.1       87     1012     0.00       43     13.4
    07/28/2015 06:15      0.9      146      2.5      153     63.9     64.2     63.6       86     1012     0.00       50     13.3
    07/28/2015 06:30      1.9       82      4.9       91     64.2     64.4     64.0       84     1012     0.00       62     13.3
    07/28/2015 06:45      0.4      267      3.0      182     64.4     64.8     64.0       83     1012     0.00       68     13.3
    07/28/2015 07:00      1.3      177      3.2      173     64.8     65.2     64.5       83     1012     0.00       89     13.3
    07/28/2015 07:15      1.2      202      4.3       95     65.5     65.8     65.1       80     1012     0.00      132     13.3
    07/28/2015 07:30      2.8       63      5.5       61     65.5     65.8     65.3       79     1012     0.00      183     13.3
    07/28/2015 07:45      1.4      145      4.3      160     66.1     66.5     65.6       78     1012     0.00      244     13.3
    07/28/2015 08:00      1.8      164      4.1      155     67.1     67.7     66.4       74     1012     0.00      437     13.3
    07/28/2015 08:15      0.6      188      2.4      182     69.3     70.3     67.5       67     1012     0.00      506     13.2
    07/28/2015 08:30      1.9      224      3.9      209     70.1     70.7     69.4       67     1012     0.00      556     13.2
    07/28/2015 08:45      1.3      297      3.3      281     71.3     72.3     70.2       63     1012     0.00      604     13.2
    07/28/2015 09:00      1.8      180      4.8      162     72.9     73.4     72.1       61     1012     0.00      650     13.2
    07/28/2015 09:15      1.1      117      4.1      172     74.1     75.3     73.1       55     1012     0.00      690     13.2
    07/28/2015 09:30      1.1      239      3.0      270     76.0     76.6     75.1       53     1012     0.00      727     13.1
    07/28/2015 09:45      1.5      299      4.4      289     76.8     77.6     76.1       46     1012     0.00      761     13.1
    07/28/2015 10:00      1.5      297      3.5      248     77.8     79.1     76.9       45     1012     0.00      795     13.1
    07/28/2015 10:15      1.9      130      4.8       85     79.4     80.1     78.8       42     1012     0.00      823     13.1
    07/28/2015 10:30      1.7      154      5.7      169     80.1     81.2     79.3       43     1012     0.00      843     13.1
    07/28/2015 10:45      3.3      117      5.8       78     80.9     81.8     80.2       38     1012     0.00      846     13.1
    07/28/2015 11:00      3.1      157      6.4      165     82.7     83.6     81.7       33     1011     0.00      825     13.0
    07/28/2015 11:15      3.2       81      7.6       81     83.4     84.0     82.8       33     1011     0.00      894     13.0
    07/28/2015 11:30      2.4      105      7.4      142     84.3     85.6     83.4       31     1011     0.00      882     13.0
    07/28/2015 11:45      3.2      151      6.8      175     85.6     86.5     84.5       32     1011     0.00      824     13.0
    07/28/2015 12:00      3.1      121      6.8      153     86.6     87.3     85.9       32     1011     0.00      778     13.0
    07/28/2015 12:15      4.0      149      9.6      162     87.3     88.4     86.6       31     1011     0.00      773     13.0
    07/28/2015 12:30      3.9      126      8.3       88     87.6     88.1     87.1       32     1011     0.00      909     13.0
    07/28/2015 12:45      3.9      146     11.6      144     87.8     88.7     86.8       31     1011     0.00      906     13.0
    07/28/2015 13:00      3.3      137      6.9      159     88.8     89.6     88.1       29     1010     0.00      899     13.0
    07/28/2015 13:15      5.0      151      9.5      207     89.1     90.1     88.3       27     1010     0.00      886     13.0
    07/28/2015 13:30      3.5      137      8.6      176     89.3     89.8     88.9       27     1010     0.00      874     13.0
    07/28/2015 13:45      3.8      137      7.9      155     90.1     90.8     89.5       23     1010     0.00      859     13.0
    07/28/2015 14:00      2.9       73      7.5       77     90.7     91.4     90.2       23     1010     0.00      833     13.0
    07/28/2015 14:15      4.1      164      9.2      165     91.4     91.9     90.7       22     1010     0.00      809     13.0
    07/28/2015 14:30      2.4       90      7.9      150     91.4     92.6     90.7       21     1010     0.00      778     13.0
    07/28/2015 14:45      4.2      126      9.9       92     92.2     93.7     90.7       23     1009     0.00      745     13.0
    07/28/2015 15:00      4.2      119     10.6       83     92.0     92.7     91.0       21     1009     0.00      682     13.0
    07/28/2015 15:15      5.3      148      9.4      167     91.7     92.3     91.2       23     1009     0.00      669     13.0
    07/28/2015 15:30      4.5      136      9.9      154     92.1     92.5     91.8       20     1009     0.00      627     13.0
    07/28/2015 15:45      3.8      133      9.6      151     92.3     93.0     91.8       17     1009     0.00      587     13.0
    07/28/2015 16:00      3.6      113      8.2      112     92.0     92.7     91.6       17     1009     0.00      541     13.0
    07/28/2015 16:15      4.2      126      8.5      146     91.9     92.4     91.5       18     1009     0.00      491     13.0
    07/28/2015 16:30      4.7      108      9.3       92     91.8     92.4     91.0       18     1009     0.00      443     13.0
    07/28/2015 16:45      4.0      104      9.7       56     91.0     91.6     90.4       18     1009     0.00      393     13.0
    07/28/2015 17:00      3.6      108      9.3       92     90.5     90.9     89.9       20     1009     0.00      343     13.0
    07/28/2015 17:15      2.9      119      6.5      141     90.5     90.9     90.1       21     1009     0.00      293     13.0
    07/28/2015 17:30      3.2      109      7.0      104     89.4     90.2     89.1       24     1009     0.00      238     13.0
    07/28/2015 17:45      3.3      101      7.1       96     88.5     89.4     87.4       25     1009     0.00      185     13.0
    07/28/2015 18:00      2.7      105      7.5      102     87.0     87.7     86.2       27     1009     0.00       85     13.0
    07/28/2015 18:15      3.1      105      6.5       83     85.7     86.5     85.2       29     1009     0.00       33     13.1
    07/28/2015 18:30      2.9      112      6.2      102     84.8     85.5     84.1       31     1009     0.00       26     13.1
    07/28/2015 18:45      2.2      121      5.2      110     83.4     84.2     82.4       32     1010     0.00       14     13.1
    07/28/2015 19:00      1.8      103      5.9       80     82.1     82.5     81.7       33     1010     0.00        7     13.1
    07/28/2015 19:15      2.3       77      5.3       82     81.1     81.9     80.3       34     1010     0.00        2     13.1
    07/28/2015 19:30      2.1       69      4.6       30     79.9     80.5     79.4       35     1010     0.00        0     13.2
    07/28/2015 19:45      2.6       71      5.1       61     79.0     79.6     78.4       37     1010     0.00        0     13.2
    07/28/2015 20:00      2.4       86      4.1       86     78.1     78.5     77.6       41     1010     0.00        0     13.2
    07/28/2015 20:15      2.4       87      5.9       93     77.3     77.8     76.7       45     1011     0.00        0     13.2
    07/28/2015 20:30      3.6       74      6.3       49     76.2     76.9     75.6       50     1011     0.00        0     13.2
    07/28/2015 20:45      2.6       66      6.0       59     75.1     75.7     74.5       51     1011     0.00        0     13.2
    07/28/2015 21:00      2.6       65      5.4       33     74.4     74.7     74.1       52     1011     0.00        0     13.2
    07/28/2015 21:15      2.7       68      5.9       90     73.7     74.3     73.2       55     1011     0.00        0     13.2
    07/28/2015 21:30      1.8       72      3.7       81     73.2     73.5     72.9       57     1011     0.00        0     13.2
    07/28/2015 21:45      1.2       97      3.1       93     72.7     73.1     72.2       59     1012     0.00        0     13.2
    07/28/2015 22:00      0.7       97      3.0       92     72.2     72.5     71.9       60     1012     0.00        0     13.3
    07/28/2015 22:15      2.0       77      4.6       81     72.0     72.3     71.7       63     1012     0.00        0     13.3
    07/28/2015 22:30      2.4       68      5.3       73     71.5     71.9     71.1       66     1012     0.00        0     13.3
    07/28/2015 22:45      2.7       59      5.4       54     70.8     71.2     70.5       68     1012     0.00        0     13.3
    07/28/2015 23:00      2.3       68      4.4       41     70.3     70.6     69.8       69     1012     0.00        0     13.3
    07/28/2015 23:15      2.5       65      4.8       83     69.8     70.2     69.5       70     1012     0.00        0     13.3
    07/28/2015 23:30      2.4       70      5.4       88     69.3     69.7     68.9       72     1012     0.00        0     13.3
    07/28/2015 23:45      2.5       75      4.9       95     68.8     69.2     68.4       73     1012     0.00        0     13.3
    07/29/2015 00:00      2.5       69      4.8       67     68.4     68.7     68.1       75     1012     0.00        0     13.3
    07/29/2015 00:15      2.3       60      5.0       65     68.0     68.3     67.6       76     1012     0.00        0     13.3
    07/29/2015 00:30      1.7       62      4.0       29     67.6     67.8     67.5       77     1012     0.00        0     13.3
    07/29/2015 00:45      1.4       81      2.8       83     67.5     67.7     67.2       78     1012     0.00        0     13.3
    07/29/2015 01:00      0.7       91      2.2       96     67.2     67.5     66.8       79     1012     0.00        0     13.3
    07/29/2015 01:15      0.6       91      1.8       78     66.7     67.1     66.3       80     1012     0.00        0     13.3
    07/29/2015 01:30      0.7      126      2.1      137     66.2     66.6     65.7       81     1012     0.00        0     13.3
    07/29/2015 01:45      0.8      117      2.4       87     65.9     66.1     65.7       82     1012     0.00        0     13.3
    07/29/2015 02:00      0.0      169      0.5      177     65.7     66.0     65.3       83     1012     0.00        0     13.3
    07/29/2015 02:15      0.0      237      0.4      238     65.3     65.7     65.0       84     1012     0.00        0     13.3
    07/29/2015 02:30      0.0        0      0.0      200     65.2     65.4     65.0       84     1011     0.00        0     13.3
    07/29/2015 02:45      0.0      144      1.0      143     64.9     65.3     64.6       84     1011     0.00        0     13.3
    07/29/2015 03:00      1.7      142      3.3      144     64.8     65.0     64.5       84     1012     0.00        0     13.3
    07/29/2015 03:15      1.3      138      2.9      145     64.9     65.1     64.7       84     1012     0.00        0     13.3
    07/29/2015 03:30      0.3       64      1.4       73     64.7     65.0     64.5       84     1012     0.00        0     13.4
    07/29/2015 03:45      0.2      295      1.0      293     64.5     64.8     64.3       85     1012     0.00        0     13.4
    07/29/2015 04:00      0.0      298      1.0      297     64.3     64.5     64.1       85     1012     0.00        0     13.4
    07/29/2015 04:15      0.0       71      1.2       78     64.1     64.5     63.8       85     1012     0.00        0     13.4
    07/29/2015 04:30      0.0      287      1.0      289     63.9     64.1     63.5       85     1012     0.00        0     13.4
    07/29/2015 04:45      0.2      288      1.4      287     63.4     63.7     63.1       83     1012     0.00        0     13.4
    07/29/2015 05:00      0.2      140      1.1      146     63.1     63.3     63.0       83     1012     0.00        0     13.4
    07/29/2015 05:15      0.0        0      0.0      137     63.3     63.6     63.0       84     1012     0.00        5     13.4
    07/29/2015 05:30      0.0       81      0.6       84     63.5     63.7     63.3       84     1012     0.00       13     13.4
    07/29/2015 05:45      0.5      165      1.8      178     63.8     64.2     63.3       85     1012     0.00       25     13.4
    07/29/2015 06:00      0.4      179      1.1      155     64.5     65.2     64.0       84     1012     0.00       87     13.4
    07/29/2015 06:15      0.8      163      2.2      156     65.8     66.7     65.0       81     1012     0.00      128     13.3
    07/29/2015 06:30      0.7      171      2.1      145     66.9     67.5     66.4       78     1012     0.00      171     13.3
    07/29/2015 06:45      1.1      165      3.7      159     68.1     68.9     67.3       75     1013     0.00      221     13.3
    07/29/2015 07:00      1.9      132      3.9       69     69.0     69.7     68.3       71     1013     0.00      269     13.3
    07/29/2015 07:15      2.3      113      5.8       96     69.9     70.5     69.5       70     1013     0.00      306     13.3
    07/29/2015 07:30      2.5       72      4.7       69     70.4     70.9     69.8       69     1013     0.00      360     13.2
    07/29/2015 07:45      2.1      107      5.3       91     70.8     71.3     70.1       69     1013     0.00      402     13.2
    07/29/2015 08:00      2.3      101      4.6       68     71.4     72.0     70.7       65     1013     0.00      452     13.2
    07/29/2015 08:15      1.4      140      4.1      107     72.5     73.1     71.6       64     1013     0.00      497     13.2
    07/29/2015 08:30      2.3      171      5.9      137     73.3     73.7     72.3       61     1013     0.00      538     13.2
    07/29/2015 08:45      1.9       91      4.5      204     74.8     75.9     73.5       56     1013     0.00      580     13.2
    07/29/2015 09:00      1.9       91      5.1       69     76.1     77.1     75.5       54     1013     0.00      619     13.1
    07/29/2015 09:15      2.6      150      7.5      150     77.0     77.5     76.5       53     1013     0.00      655     13.1
    07/29/2015 09:30      3.7      156      6.9      157     77.8     78.9     77.0       50     1013     0.00      691     13.1
    07/29/2015 09:45      2.4      124      5.7       87     78.9     79.7     78.2       47     1013     0.00      726     13.1
    07/29/2015 10:00      2.7      127      7.6       90     80.0     80.7     79.0       44     1013     0.00      757     13.1
    07/29/2015 10:15      3.1      116      6.0       66     80.4     81.0     79.9       42     1013     0.00      780     13.1
    07/29/2015 10:30      2.9      104      7.3       94     81.4     82.1     81.0       41     1013     0.00      804     13.1
    07/29/2015 10:45      3.5      125      7.7      130     82.7     83.9     81.4       39     1013     0.00      826     13.1
    07/29/2015 11:00      2.7      136      7.5      177     84.3     85.0     83.4       40     1013     0.00      842     13.0
    07/29/2015 11:15      3.6      122      8.6      130     83.8     84.2     83.2       40     1013     0.00      853     13.0
    07/29/2015 11:30      3.9      105      7.8       76     84.2     84.7     83.9       38     1013     0.00      861     13.0
    07/29/2015 11:45      3.1      130      7.6       93     84.8     85.9     84.0       36     1013     0.00      778     13.0
    07/29/2015 12:00      2.5      183      5.2      148     86.3     87.3     84.9       33     1013     0.00      876     13.0